Time;durP1;ratioP1;P1;durP2;ratioP2;P2;SDS_P1;SDS_P2;PMS_P1;PMS_P2;Temp;Humidity;BMP_temperature;BMP_pressure;BME280_temperature;BME280_humidity;BME280_pressure;Samples;Min_cycle;Max_cycle;Signal;HPM_P1;HPM_P2
2023/05/19 05:51:12;;;;;;;4.22;2.40;;;;;;;;;;10593535;27;20480;-83
2023/05/19 05:56:13;;;;;;;6.18;3.42;;;;;;;;;;10590130;28;20020;-84
2023/05/19 06:01:15;;;;;;;4.43;3.00;;;;;;;;;;10600528;22;20040;-83
2023/05/19 06:06:16;;;;;;;9.82;3.88;;;;;;;;;;10533866;28;20092;-83
2023/05/19 06:11:18;;;;;;;;;;;;;;;;;;10548295;28;20032;-83
2023/05/19 06:16:20;;;;;;;2.95;2.10;;;;;;;;;;10591961;28;19908;-84
2023/05/19 06:21:22;;;;;;;6.35;3.00;;;;;;;;;;10576488;28;20016;-84
2023/05/19 06:26:23;;;;;;;5.13;2.75;;;;;;;;;;10581254;27;20042;-84
2023/05/19 06:31:25;;;;;;;6.97;3.13;;;;;;;;;;10574357;28;20027;-84
2023/05/19 06:36:26;;;;;;;6.63;3.55;;;;;;;;;;10574574;28;20051;-83
2023/05/19 06:41:27;;;;;;;4.30;1.85;;;;;;;;;;10572033;28;20103;-83
2023/05/19 06:46:28;;;;;;;5.22;2.85;;;;;;;;;;10570945;28;20374;-83
2023/05/19 06:51:30;;;;;;;4.07;2.40;;;;;;;;;;10589702;28;20020;-83
2023/05/19 06:56:31;;;;;;;10.68;3.78;;;;;;;;;;10570599;28;20020;-83
2023/05/19 07:01:33;;;;;;;4.95;2.55;;;;;;;;;;10555888;28;20043;-84
2023/05/19 07:06:34;;;;;;;6.35;2.15;;;;;;;;;;10537008;28;20016;-81
2023/05/19 07:11:35;;;;;;;4.00;2.65;;;;;;;;;;10540972;28;20036;-81
2023/05/19 07:16:36;;;;;;;3.47;2.08;;;;;;;;;;10556804;28;20075;-79
2023/05/19 07:21:37;;;;;;;5.43;2.85;;;;;;;;;;10537486;28;20105;-82
2023/05/19 07:26:39;;;;;;;5.78;2.50;;;;;;;;;;10540378;28;20020;-80
2023/05/19 07:31:40;;;;;;;3.58;2.10;;;;;;;;;;10537339;28;20027;-81
2023/05/19 07:36:41;;;;;;;5.43;2.72;;;;;;;;;;10539341;28;20075;-80
2023/05/19 07:41:42;;;;;;;4.43;2.70;;;;;;;;;;10557503;28;20060;-81
2023/05/19 07:46:43;;;;;;;6.78;2.50;;;;;;;;;;10538222;28;20508;-81
2023/05/19 07:51:45;;;;;;;7.72;3.08;;;;;;;;;;10562890;28;20024;-81
2023/05/19 07:56:47;;;;;;;4.28;2.20;;;;;;;;;;10563438;28;20024;-83
2023/05/19 08:01:48;;;;;;;5.97;2.88;;;;;;;;;;10543178;28;20032;-83
2023/05/19 08:06:51;;;;;;;5.57;2.95;;;;;;;;;;10539212;28;20118;-83
2023/05/19 08:11:52;;;;;;;8.00;3.95;;;;;;;;;;10546264;28;20040;-82
2023/05/19 08:16:53;;;;;;;4.57;2.55;;;;;;;;;;10551867;28;20390;-83
2023/05/19 08:21:56;;;;;;;6.03;2.50;;;;;;;;;;10540019;28;20038;-84
2023/05/19 08:27:00;;;;;;;9.05;2.53;;;;;;;;;;10540564;28;20027;-83
2023/05/19 08:32:01;;;;;;;5.75;2.63;;;;;;;;;;10562341;28;20034;-82
2023/05/19 08:37:02;;;;;;;8.25;2.60;;;;;;;;;;10539976;28;20032;-82
2023/05/19 08:42:06;;;;;;;4.25;2.60;;;;;;;;;;10537864;28;20059;-82
2023/05/19 08:47:12;;;;;;;6.80;3.08;;;;;;;;;;10542404;28;20020;-80
2023/05/19 08:52:32;;;;;;;5.50;2.30;;;;;;;;;;10561225;28;20020;-81
2023/05/19 08:57:33;;;;;;;3.83;2.07;;;;;;;;;;10551136;28;20036;-81
2023/05/19 09:02:35;;;;;;;5.18;2.20;;;;;;;;;;10544677;28;20086;-80
2023/05/19 09:07:37;;;;;;;6.93;2.17;;;;;;;;;;10547164;28;20067;-79
2023/05/19 09:12:44;;;;;;;8.18;4.88;;;;;;;;;;10547274;28;20039;-81
2023/05/19 09:17:52;;;;;;;5.22;2.30;;;;;;;;;;10548380;28;20024;-82
2023/05/19 09:22:53;;;;;;;5.38;2.17;;;;;;;;;;10546866;28;20024;-80
2023/05/19 09:27:54;;;;;;;5.70;2.17;;;;;;;;;;10548908;28;20512;-80
2023/05/19 09:32:55;;;;;;;2.83;1.70;;;;;;;;;;10548449;28;20035;-80
2023/05/19 09:37:56;;;;;;;6.85;2.10;;;;;;;;;;10545653;28;20028;-80
2023/05/19 09:42:57;;;;;;;7.63;1.88;;;;;;;;;;10563931;28;20020;-80
2023/05/19 09:48:05;;;;;;;3.72;2.38;;;;;;;;;;10562201;28;20103;-80
2023/05/19 09:53:07;;;;;;;4.30;2.15;;;;;;;;;;10543206;28;20054;-80
2023/05/19 09:58:09;;;;;;;5.05;2.40;;;;;;;;;;10537870;28;20119;-79
2023/05/19 10:03:10;;;;;;;4.70;1.85;;;;;;;;;;10534201;28;20081;-77
2023/05/19 10:08:12;;;;;;;5.80;2.28;;;;;;;;;;10533657;28;20034;-81
2023/05/19 10:13:16;;;;;;;6.78;2.28;;;;;;;;;;10549909;28;20028;-81
2023/05/19 10:18:23;;;;;;;7.03;2.20;;;;;;;;;;10555519;28;20078;-81
2023/05/19 10:23:25;;;;;;;4.65;2.03;;;;;;;;;;10548417;28;20044;-83
2023/05/19 10:28:31;;;;;;;6.07;2.53;;;;;;;;;;10547048;28;20081;-83
2023/05/19 10:33:44;;;;;;;4.63;1.95;;;;;;;;;;10546648;28;20092;-82
2023/05/19 10:38:53;;;;;;;7.28;2.88;;;;;;;;;;10555105;28;20389;-82
2023/05/19 10:44:24;;;;;;;6.25;2.88;;;;;;;;;;10553143;28;20030;-82
2023/05/19 10:49:25;;;;;;;6.22;2.50;;;;;;;;;;10531536;28;20036;-84
2023/05/19 10:54:39;;;;;;;7.00;2.20;;;;;;;;;;10547341;28;20099;-82
2023/05/19 10:59:40;;;;;;;6.95;1.83;;;;;;;;;;10551164;28;20091;-82
2023/05/19 11:04:53;;;;;;;5.45;1.77;;;;;;;;;;10562129;28;20028;-82
2023/05/19 11:09:54;;;;;;;5.57;1.92;;;;;;;;;;10560821;28;20028;-82
2023/05/19 11:14:55;;;;;;;4.38;1.85;;;;;;;;;;10551132;28;20024;-82
2023/05/19 11:19:58;;;;;;;3.88;1.70;;;;;;;;;;10552176;28;20028;-83
2023/05/19 11:24:59;;;;;;;3.97;1.70;;;;;;;;;;10556175;28;20046;-82
2023/05/19 11:30:04;;;;;;;3.95;1.83;;;;;;;;;;10579672;28;20051;-82
2023/05/19 11:35:06;;;;;;;5.13;1.90;;;;;;;;;;10551961;28;20031;-82
2023/05/19 11:40:08;;;;;;;5.60;2.50;;;;;;;;;;10557191;28;20036;-85
2023/05/19 11:45:09;;;;;;;7.82;2.30;;;;;;;;;;10551176;28;20011;-82
2023/05/19 11:50:11;;;;;;;4.57;3.08;;;;;;;;;;10579703;28;20028;-83
2023/05/19 11:55:16;;;;;;;7.72;4.05;;;;;;;;;;10552774;28;20032;-82
2023/05/19 12:00:17;;;;;;;6.68;2.80;;;;;;;;;;10582775;22;20016;-80
2023/05/19 12:05:25;;;;;;;9.77;5.85;;;;;;;;;;10597182;28;20393;-80
2023/05/19 12:10:27;;;;;;;4.80;1.98;;;;;;;;;;10581137;28;20023;-80
2023/05/19 12:15:28;;;;;;;6.80;3.88;;;;;;;;;;10578197;28;20036;-80
2023/05/19 12:20:31;;;;;;;5.97;1.95;;;;;;;;;;10577471;28;20043;-80
2023/05/19 12:25:32;;;;;;;5.88;2.20;;;;;;;;;;10578344;28;20050;-82
2023/05/19 12:30:33;;;;;;;4.13;1.90;;;;;;;;;;10591606;28;20028;-84
2023/05/19 12:35:37;;;;;;;3.08;1.60;;;;;;;;;;10602015;28;20028;-82
2023/05/19 12:40:38;;;;;;;5.68;1.90;;;;;;;;;;10596770;28;20037;-82
2023/05/19 12:45:41;;;;;;;5.22;2.03;;;;;;;;;;10588222;28;20032;-83
2023/05/19 12:50:46;;;;;;;4.40;1.88;;;;;;;;;;10582020;28;20060;-82
2023/05/19 12:55:47;;;;;;;2.92;1.60;;;;;;;;;;10599928;28;20024;-82
2023/05/19 13:00:48;;;;;;;6.55;2.58;;;;;;;;;;10582267;28;20062;-82
2023/05/19 13:05:50;;;;;;;5.40;1.85;;;;;;;;;;10581737;28;20049;-80
2023/05/19 13:10:51;;;;;;;5.68;2.30;;;;;;;;;;10581377;28;20339;-82
2023/05/19 13:15:52;;;;;;;6.40;1.98;;;;;;;;;;10580058;28;20088;-83
2023/05/19 13:20:53;;;;;;;4.20;2.40;;;;;;;;;;10585951;28;20114;-83
2023/05/19 13:25:54;;;;;;;5.60;2.83;;;;;;;;;;10581896;28;20049;-85
2023/05/19 13:30:56;;;;;;;4.47;2.17;;;;;;;;;;10584987;28;20073;-83
2023/05/19 13:35:57;;;;;;;5.20;2.05;;;;;;;;;;10593203;28;20023;-83
2023/05/19 13:40:58;;;;;;;6.22;2.72;;;;;;;;;;10615154;28;20047;-81
2023/05/19 13:45:59;;;;;;;6.38;2.13;;;;;;;;;;10605892;27;20040;-82
2023/05/19 13:51:01;;;;;;;4.60;1.80;;;;;;;;;;10631740;27;20124;-83
2023/05/19 13:56:02;;;;;;;12.80;7.28;;;;;;;;;;10589196;28;20032;-82
2023/05/19 14:01:03;;;;;;;5.65;2.20;;;;;;;;;;10583214;28;20036;-83
2023/05/19 14:06:04;;;;;;;4.38;1.95;;;;;;;;;;10584727;28;20032;-82
2023/05/19 14:11:05;;;;;;;5.55;1.80;;;;;;;;;;10605855;28;20028;-84
2023/05/19 14:16:07;;;;;;;5.03;1.80;;;;;;;;;;10592191;28;20024;-83
2023/05/19 14:21:08;;;;;;;4.82;1.95;;;;;;;;;;10594560;28;20388;-85
2023/05/19 14:26:09;;;;;;;5.38;2.50;;;;;;;;;;10598445;28;20027;-87
2023/05/19 14:31:11;;;;;;;3.78;1.80;;;;;;;;;;10591823;28;20047;-84
2023/05/19 14:36:12;;;;;;;5.80;2.50;;;;;;;;;;10590809;28;20091;-85
2023/05/19 14:41:13;;;;;;;5.43;2.20;;;;;;;;;;10590385;28;20038;-84
2023/05/19 14:46:14;;;;;;;6.22;2.80;;;;;;;;;;10609690;28;20031;-83
2023/05/19 14:51:15;;;;;;;3.28;1.80;;;;;;;;;;10601611;28;20560;-83
2023/05/19 14:56:16;;;;;;;3.45;1.90;;;;;;;;;;10583139;28;20048;-83
2023/05/19 15:01:17;;;;;;;3.95;1.80;;;;;;;;;;10581153;28;20511;-84
2023/05/19 15:06:18;;;;;;;4.57;2.17;;;;;;;;;;10597791;28;20030;-83
2023/05/19 15:11:19;;;;;;;3.60;2.03;;;;;;;;;;10611682;28;20030;-85
2023/05/19 15:16:20;;;;;;;7.57;4.03;;;;;;;;;;10589123;28;20020;-86
2023/05/19 15:21:21;;;;;;;5.35;2.47;;;;;;;;;;10592971;28;20052;-85
2023/05/19 15:26:23;;;;;;;3.90;2.05;;;;;;;;;;10607849;27;20022;-84
2023/05/19 15:31:24;;;;;;;2.80;1.73;;;;;;;;;;10612581;28;20027;-84
2023/05/19 15:36:25;;;;;;;4.25;2.80;;;;;;;;;;10606511;27;20042;-85
2023/05/19 15:41:26;;;;;;;4.80;2.10;;;;;;;;;;10586619;28;20027;-83
2023/05/19 15:46:27;;;;;;;3.15;1.85;;;;;;;;;;10589579;28;20028;-84
2023/05/19 15:51:28;;;;;;;3.33;1.88;;;;;;;;;;10590086;28;20016;-84
2023/05/19 15:56:29;;;;;;;4.00;1.80;;;;;;;;;;10603603;28;20011;-85
2023/05/19 16:01:30;;;;;;;4.72;1.90;;;;;;;;;;10600439;28;20451;-84
2023/05/19 16:06:31;;;;;;;4.00;1.70;;;;;;;;;;10585327;28;20107;-84
2023/05/19 16:11:32;;;;;;;4.65;2.15;;;;;;;;;;10586069;28;20453;-84
2023/05/19 16:16:33;;;;;;;3.45;1.80;;;;;;;;;;10585440;28;20048;-81
2023/05/19 16:21:34;;;;;;;3.53;1.70;;;;;;;;;;10587432;28;20351;-81
2023/05/19 16:26:35;;;;;;;3.75;1.60;;;;;;;;;;10581302;28;20020;-83
2023/05/19 16:31:37;;;;;;;3.70;2.03;;;;;;;;;;10580525;28;20059;-83
2023/05/19 16:36:38;;;;;;;3.33;1.73;;;;;;;;;;10580470;28;20477;-83
2023/05/19 16:41:39;;;;;;;4.97;2.40;;;;;;;;;;10584728;28;20073;-83
2023/05/19 16:46:40;;;;;;;4.85;2.70;;;;;;;;;;10583458;28;20469;-84
2023/05/19 16:51:41;;;;;;;6.72;3.30;;;;;;;;;;10602178;28;20023;-84
2023/05/19 16:56:42;;;;;;;5.82;2.10;;;;;;;;;;10611392;28;20023;-83
2023/05/19 17:01:43;;;;;;;5.93;2.28;;;;;;;;;;10582977;28;20036;-84
2023/05/19 17:06:47;;;;;;;4.72;2.00;;;;;;;;;;10581919;28;20028;-83
2023/05/19 17:11:48;;;;;;;4.05;2.13;;;;;;;;;;10581897;28;20508;-84
2023/05/19 17:16:51;;;;;;;5.00;3.08;;;;;;;;;;10583568;28;20020;-83
2023/05/19 17:21:52;;;;;;;4.45;2.08;;;;;;;;;;10579683;28;20492;-84
2023/05/19 17:26:53;;;;;;;4.45;2.78;;;;;;;;;;10579055;28;20035;-84
2023/05/19 17:31:54;;;;;;;5.35;2.25;;;;;;;;;;10579973;28;20118;-84
2023/05/19 17:36:55;;;;;;;4.10;2.00;;;;;;;;;;10580019;28;20473;-84
2023/05/19 17:41:56;;;;;;;3.85;1.95;;;;;;;;;;10597014;28;20465;-85
2023/05/19 17:46:57;;;;;;;3.20;1.92;;;;;;;;;;10578271;28;20110;-85
2023/05/19 17:51:58;;;;;;;4.15;2.08;;;;;;;;;;10585175;28;20021;-85
2023/05/19 17:57:02;;;;;;;3.20;2.00;;;;;;;;;;10581367;28;20024;-85
2023/05/19 18:02:03;;;;;;;2.10;1.80;;;;;;;;;;10580026;28;20123;-83
2023/05/19 18:07:04;;;;;;;6.80;2.13;;;;;;;;;;10579373;28;20023;-83
2023/05/19 18:12:06;;;;;;;2.97;1.90;;;;;;;;;;10577543;28;20027;-83
2023/05/19 18:17:07;;;;;;;3.40;1.92;;;;;;;;;;10596974;28;20393;-83
2023/05/19 18:22:11;;;;;;;2.92;1.95;;;;;;;;;;10578495;28;20024;-85
2023/05/19 18:27:12;;;;;;;3.05;1.92;;;;;;;;;;10578513;28;20023;-84
2023/05/19 18:32:15;;;;;;;5.53;1.65;;;;;;;;;;10598518;28;20046;-83
2023/05/19 18:37:17;;;;;;;2.85;1.90;;;;;;;;;;10578248;28;20436;-85
2023/05/19 18:42:18;;;;;;;2.63;1.40;;;;;;;;;;10578780;28;20027;-84
2023/05/19 18:47:21;;;;;;;3.80;1.70;;;;;;;;;;10583383;28;20079;-84
2023/05/19 18:52:22;;;;;;;5.45;1.98;;;;;;;;;;10594893;28;20370;-83
2023/05/19 18:57:23;;;;;;;3.38;1.90;;;;;;;;;;10583428;28;20102;-84
2023/05/19 19:02:24;;;;;;;3.05;1.60;;;;;;;;;;10604286;28;20059;-84
2023/05/19 19:07:26;;;;;;;3.70;1.52;;;;;;;;;;10586280;28;20076;-86
2023/05/19 19:12:27;;;;;;;4.10;1.63;;;;;;;;;;10588475;28;20024;-85
